sensor_id;sensor_type;location;lat;lon;timestamp;temperature;humidity
11005;DHT22;5555;59.622;16.556;2024-01-11T00:01:23;-0.10;99.90
11005;DHT22;5555;59.622;16.556;2024-01-11T00:03:49;0.40;99.90
11005;DHT22;5555;59.622;16.556;2024-01-11T00:06:14;0.70;99.90
11005;DHT22;5555;59.622;16.556;2024-01-11T00:08:40;1.20;99.90
11005;DHT22;5555;59.622;16.556;2024-01-11T00:11:06;2.30;99.90
11005;DHT22;5555;59.622;16.556;2024-01-11T00:13:31;3.20;99.90
11005;DHT22;5555;59.622;16.556;2024-01-11T00:15:57;3.60;99.90
11005;DHT22;5555;59.622;16.556;2024-01-11T00:18:22;4.00;99.90
11005;DHT22;5555;59.622;16.556;2024-01-11T00:20:48;4.10;99.90
11005;DHT22;5555;59.622;16.556;2024-01-11T00:23:13;4.30;99.90
11005;DHT22;5555;59.622;16.556;2024-01-11T00:25:39;4.40;99.90
11005;DHT22;5555;59.622;16.556;2024-01-11T00:28:05;4.40;99.90
11005;DHT22;5555;59.622;16.556;2024-01-11T00:30:30;4.40;99.90
11005;DHT22;5555;59.622;16.556;2024-01-11T00:32:56;4.50;99.90
11005;DHT22;5555;59.622;16.556;2024-01-11T00:35:21;4.50;99.90
11005;DHT22;5555;59.622;16.556;2024-01-11T00:37:47;4.50;99.90
11005;DHT22;5555;59.622;16.556;2024-01-11T00:40:13;4.40;99.90
11005;DHT22;5555;59.622;16.556;2024-01-11T00:42:38;4.30;99.90
11005;DHT22;5555;59.622;16.556;2024-01-11T00:45:04;4.30;99.90
11005;DHT22;5555;59.622;16.556;2024-01-11T00:47:30;4.30;99.90
11005;DHT22;5555;59.622;16.556;2024-01-11T00:49:55;4.30;99.90
11005;DHT22;5555;59.622;16.556;2024-01-11T00:52:21;4.30;99.90
11005;DHT22;5555;59.622;16.556;2024-01-11T00:54:47;4.50;99.90
11005;DHT22;5555;59.622;16.556;2024-01-11T00:57:12;4.30;99.90
11005;DHT22;5555;59.622;16.556;2024-01-11T00:59:40;4.40;99.90
11005;DHT22;5555;59.622;16.556;2024-01-11T01:02:05;4.40;99.90
11005;DHT22;5555;59.622;16.556;2024-01-11T01:04:31;4.30;99.90
11005;DHT22;5555;59.622;16.556;2024-01-11T01:06:57;4.20;99.90
11005;DHT22;5555;59.622;16.556;2024-01-11T01:09:22;4.30;99.90
11005;DHT22;5555;59.622;16.556;2024-01-11T01:11:48;4.30;99.90
11005;DHT22;5555;59.622;16.556;2024-01-11T01:14:14;4.20;99.90
11005;DHT22;5555;59.622;16.556;2024-01-11T01:16:40;4.20;99.90
11005;DHT22;5555;59.622;16.556;2024-01-11T01:19:05;4.10;99.90
11005;DHT22;5555;59.622;16.556;2024-01-11T01:21:31;4.20;99.90
11005;DHT22;5555;59.622;16.556;2024-01-11T01:23:57;4.20;99.90
11005;DHT22;5555;59.622;16.556;2024-01-11T01:26:22;4.30;99.90
11005;DHT22;5555;59.622;16.556;2024-01-11T01:28:48;4.30;99.90
11005;DHT22;5555;59.622;16.556;2024-01-11T01:31:14;4.20;99.90
11005;DHT22;5555;59.622;16.556;2024-01-11T01:33:42;4.30;99.90
11005;DHT22;5555;59.622;16.556;2024-01-11T01:36:11;4.20;99.90
11005;DHT22;5555;59.622;16.556;2024-01-11T01:38:37;4.20;99.90
11005;DHT22;5555;59.622;16.556;2024-01-11T01:41:03;4.20;99.90
11005;DHT22;5555;59.622;16.556;2024-01-11T01:43:28;4.20;99.90
11005;DHT22;5555;59.622;16.556;2024-01-11T01:45:54;4.20;99.90
11005;DHT22;5555;59.622;16.556;2024-01-11T01:48:20;4.20;99.90
11005;DHT22;5555;59.622;16.556;2024-01-11T01:50:47;4.20;99.90
11005;DHT22;5555;59.622;16.556;2024-01-11T01:53:20;4.20;99.90
11005;DHT22;5555;59.622;16.556;2024-01-11T01:55:47;4.20;99.90
11005;DHT22;5555;59.622;16.556;2024-01-11T01:58:15;4.10;99.90
11005;DHT22;5555;59.622;16.556;2024-01-11T02:00:43;4.20;99.90
11005;DHT22;5555;59.622;16.556;2024-01-11T02:03:10;4.20;99.90
11005;DHT22;5555;59.622;16.556;2024-01-11T02:05:36;4.20;99.90
11005;DHT22;5555;59.622;16.556;2024-01-11T02:08:03;4.10;99.90
11005;DHT22;5555;59.622;16.556;2024-01-11T02:10:34;4.10;99.90
11005;DHT22;5555;59.622;16.556;2024-01-11T02:13:01;4.10;99.90
11005;DHT22;5555;59.622;16.556;2024-01-11T02:15:26;4.10;99.90
11005;DHT22;5555;59.622;16.556;2024-01-11T02:17:52;4.20;99.90
11005;DHT22;5555;59.622;16.556;2024-01-11T02:20:18;4.20;99.90
11005;DHT22;5555;59.622;16.556;2024-01-11T02:22:47;4.20;99.90
11005;DHT22;5555;59.622;16.556;2024-01-11T02:25:13;4.20;99.90
11005;DHT22;5555;59.622;16.556;2024-01-11T02:27:47;4.20;99.90
11005;DHT22;5555;59.622;16.556;2024-01-11T02:30:13;4.30;99.90
11005;DHT22;5555;59.622;16.556;2024-01-11T02:32:39;4.30;99.90
11005;DHT22;5555;59.622;16.556;2024-01-11T02:35:05;4.40;99.90
11005;DHT22;5555;59.622;16.556;2024-01-11T02:37:31;4.40;99.90
11005;DHT22;5555;59.622;16.556;2024-01-11T02:39:56;4.40;99.90
11005;DHT22;5555;59.622;16.556;2024-01-11T02:42:22;4.40;99.90
11005;DHT22;5555;59.622;16.556;2024-01-11T02:44:48;4.40;99.90
11005;DHT22;5555;59.622;16.556;2024-01-11T02:47:13;4.40;99.90
11005;DHT22;5555;59.622;16.556;2024-01-11T02:49:39;4.40;99.90
11005;DHT22;5555;59.622;16.556;2024-01-11T02:52:05;4.40;99.90
11005;DHT22;5555;59.622;16.556;2024-01-11T02:54:30;4.40;99.90
11005;DHT22;5555;59.622;16.556;2024-01-11T02:56:56;4.30;99.90
11005;DHT22;5555;59.622;16.556;2024-01-11T02:59:22;4.40;99.90
11005;DHT22;5555;59.622;16.556;2024-01-11T03:01:49;4.40;99.90
11005;DHT22;5555;59.622;16.556;2024-01-11T03:04:15;4.40;99.90
11005;DHT22;5555;59.622;16.556;2024-01-11T03:06:41;4.40;99.90
11005;DHT22;5555;59.622;16.556;2024-01-11T03:09:07;4.30;99.90
11005;DHT22;5555;59.622;16.556;2024-01-11T03:11:32;4.30;99.90
11005;DHT22;5555;59.622;16.556;2024-01-11T03:13:58;4.20;99.90
11005;DHT22;5555;59.622;16.556;2024-01-11T03:16:23;4.10;99.90
11005;DHT22;5555;59.622;16.556;2024-01-11T03:18:49;4.10;99.90
11005;DHT22;5555;59.622;16.556;2024-01-11T03:21:14;4.10;99.90
11005;DHT22;5555;59.622;16.556;2024-01-11T03:23:40;4.20;99.90
11005;DHT22;5555;59.622;16.556;2024-01-11T03:26:15;4.20;99.90
11005;DHT22;5555;59.622;16.556;2024-01-11T03:28:41;4.20;99.90
11005;DHT22;5555;59.622;16.556;2024-01-11T03:31:08;4.10;99.90
11005;DHT22;5555;59.622;16.556;2024-01-11T03:33:34;4.10;99.90
11005;DHT22;5555;59.622;16.556;2024-01-11T03:36:05;4.10;99.90
11005;DHT22;5555;59.622;16.556;2024-01-11T03:38:31;4.00;99.90
11005;DHT22;5555;59.622;16.556;2024-01-11T03:40:57;4.00;99.90
11005;DHT22;5555;59.622;16.556;2024-01-11T03:43:22;4.00;99.90
11005;DHT22;5555;59.622;16.556;2024-01-11T03:45:48;4.00;99.90
11005;DHT22;5555;59.622;16.556;2024-01-11T03:48:13;4.00;99.90
11005;DHT22;5555;59.622;16.556;2024-01-11T03:50:39;4.00;99.90
11005;DHT22;5555;59.622;16.556;2024-01-11T03:53:04;4.10;99.90
11005;DHT22;5555;59.622;16.556;2024-01-11T03:55:30;4.10;99.90
11005;DHT22;5555;59.622;16.556;2024-01-11T03:57:56;4.00;99.90
11005;DHT22;5555;59.622;16.556;2024-01-11T04:00:21;4.00;99.90
11005;DHT22;5555;59.622;16.556;2024-01-11T04:02:47;4.00;99.90
11005;DHT22;5555;59.622;16.556;2024-01-11T04:05:13;4.00;99.90
11005;DHT22;5555;59.622;16.556;2024-01-11T04:07:38;4.10;99.90
11005;DHT22;5555;59.622;16.556;2024-01-11T04:10:04;4.10;99.90
11005;DHT22;5555;59.622;16.556;2024-01-11T04:12:30;4.10;99.90
11005;DHT22;5555;59.622;16.556;2024-01-11T04:14:55;4.00;99.90
11005;DHT22;5555;59.622;16.556;2024-01-11T04:17:21;4.10;99.90
11005;DHT22;5555;59.622;16.556;2024-01-11T04:19:47;4.10;99.90
11005;DHT22;5555;59.622;16.556;2024-01-11T04:22:12;4.10;99.90
11005;DHT22;5555;59.622;16.556;2024-01-11T04:24:38;4.10;99.90
11005;DHT22;5555;59.622;16.556;2024-01-11T04:27:04;4.00;99.90
11005;DHT22;5555;59.622;16.556;2024-01-11T04:29:29;4.00;99.90
11005;DHT22;5555;59.622;16.556;2024-01-11T04:31:55;4.00;99.90
11005;DHT22;5555;59.622;16.556;2024-01-11T04:34:21;4.00;99.90
11005;DHT22;5555;59.622;16.556;2024-01-11T04:36:47;3.90;99.90
11005;DHT22;5555;59.622;16.556;2024-01-11T04:39:13;3.90;99.90
11005;DHT22;5555;59.622;16.556;2024-01-11T04:41:39;4.00;99.90
11005;DHT22;5555;59.622;16.556;2024-01-11T04:44:05;4.00;99.90
11005;DHT22;5555;59.622;16.556;2024-01-11T04:46:30;4.10;99.90
11005;DHT22;5555;59.622;16.556;2024-01-11T04:48:56;4.10;99.90
11005;DHT22;5555;59.622;16.556;2024-01-11T04:51:21;4.20;99.90
11005;DHT22;5555;59.622;16.556;2024-01-11T04:53:47;4.20;99.90
11005;DHT22;5555;59.622;16.556;2024-01-11T04:56:16;4.20;99.90
11005;DHT22;5555;59.622;16.556;2024-01-11T04:58:43;4.20;99.90
11005;DHT22;5555;59.622;16.556;2024-01-11T05:01:17;4.20;99.90
11005;DHT22;5555;59.622;16.556;2024-01-11T05:03:44;4.10;99.90
11005;DHT22;5555;59.622;16.556;2024-01-11T05:06:18;4.00;99.90
11005;DHT22;5555;59.622;16.556;2024-01-11T05:08:49;4.00;99.90
11005;DHT22;5555;59.622;16.556;2024-01-11T05:11:24;4.00;99.90
11005;DHT22;5555;59.622;16.556;2024-01-11T05:13:51;4.00;99.90
11005;DHT22;5555;59.622;16.556;2024-01-11T05:16:27;4.00;99.90
11005;DHT22;5555;59.622;16.556;2024-01-11T05:18:55;4.00;99.90
11005;DHT22;5555;59.622;16.556;2024-01-11T05:21:21;3.90;99.90
11005;DHT22;5555;59.622;16.556;2024-01-11T05:23:47;3.80;99.90
11005;DHT22;5555;59.622;16.556;2024-01-11T05:26:15;3.80;99.90
11005;DHT22;5555;59.622;16.556;2024-01-11T05:28:41;3.80;99.90
11005;DHT22;5555;59.622;16.556;2024-01-11T05:31:11;3.70;99.90
11005;DHT22;5555;59.622;16.556;2024-01-11T05:33:37;3.70;99.90
11005;DHT22;5555;59.622;16.556;2024-01-11T05:36:03;3.70;99.90
11005;DHT22;5555;59.622;16.556;2024-01-11T05:38:29;3.60;99.90
11005;DHT22;5555;59.622;16.556;2024-01-11T05:40:55;3.70;99.90
11005;DHT22;5555;59.622;16.556;2024-01-11T05:43:22;3.80;99.90
11005;DHT22;5555;59.622;16.556;2024-01-11T05:45:48;3.90;99.90
11005;DHT22;5555;59.622;16.556;2024-01-11T05:48:15;3.90;99.90
11005;DHT22;5555;59.622;16.556;2024-01-11T05:50:41;4.00;99.90
11005;DHT22;5555;59.622;16.556;2024-01-11T05:53:07;3.70;99.90
11005;DHT22;5555;59.622;16.556;2024-01-11T05:55:32;3.70;99.90
11005;DHT22;5555;59.622;16.556;2024-01-11T05:57:58;3.70;99.90
11005;DHT22;5555;59.622;16.556;2024-01-11T06:00:23;3.80;99.90
11005;DHT22;5555;59.622;16.556;2024-01-11T06:02:49;3.70;99.90
11005;DHT22;5555;59.622;16.556;2024-01-11T06:05:14;3.70;99.90
11005;DHT22;5555;59.622;16.556;2024-01-11T06:07:40;3.70;99.90
11005;DHT22;5555;59.622;16.556;2024-01-11T06:10:07;3.70;99.90
11005;DHT22;5555;59.622;16.556;2024-01-11T06:12:34;3.60;99.90
11005;DHT22;5555;59.622;16.556;2024-01-11T06:15:00;3.60;99.90
11005;DHT22;5555;59.622;16.556;2024-01-11T06:17:26;3.40;99.90
11005;DHT22;5555;59.622;16.556;2024-01-11T06:19:52;3.30;99.90
11005;DHT22;5555;59.622;16.556;2024-01-11T06:22:18;3.30;99.90
11005;DHT22;5555;59.622;16.556;2024-01-11T06:24:44;3.20;99.90
11005;DHT22;5555;59.622;16.556;2024-01-11T06:27:09;3.10;99.90
11005;DHT22;5555;59.622;16.556;2024-01-11T06:29:35;3.00;99.90
11005;DHT22;5555;59.622;16.556;2024-01-11T06:32:01;2.90;99.90
11005;DHT22;5555;59.622;16.556;2024-01-11T06:34:27;2.80;99.90
11005;DHT22;5555;59.622;16.556;2024-01-11T06:36:54;2.80;99.90
11005;DHT22;5555;59.622;16.556;2024-01-11T06:39:20;2.70;99.90
11005;DHT22;5555;59.622;16.556;2024-01-11T06:41:46;2.60;99.90
11005;DHT22;5555;59.622;16.556;2024-01-11T06:44:12;2.60;99.90
11005;DHT22;5555;59.622;16.556;2024-01-11T06:46:38;2.50;99.90
11005;DHT22;5555;59.622;16.556;2024-01-11T06:49:07;2.40;99.90
11005;DHT22;5555;59.622;16.556;2024-01-11T06:51:33;2.40;99.90
11005;DHT22;5555;59.622;16.556;2024-01-11T06:53:59;2.40;99.90
11005;DHT22;5555;59.622;16.556;2024-01-11T06:56:26;2.30;99.90
11005;DHT22;5555;59.622;16.556;2024-01-11T06:58:52;2.30;99.90
11005;DHT22;5555;59.622;16.556;2024-01-11T07:01:18;2.20;99.90
11005;DHT22;5555;59.622;16.556;2024-01-11T07:03:44;2.30;99.90
11005;DHT22;5555;59.622;16.556;2024-01-11T07:06:10;2.20;99.90
11005;DHT22;5555;59.622;16.556;2024-01-11T07:08:35;2.20;99.90
11005;DHT22;5555;59.622;16.556;2024-01-11T07:11:01;2.20;99.90
11005;DHT22;5555;59.622;16.556;2024-01-11T07:13:28;2.20;99.90
11005;DHT22;5555;59.622;16.556;2024-01-11T07:15:54;2.10;99.90
11005;DHT22;5555;59.622;16.556;2024-01-11T07:18:21;2.10;99.90
11005;DHT22;5555;59.622;16.556;2024-01-11T07:20:47;2.10;99.90
11005;DHT22;5555;59.622;16.556;2024-01-11T07:23:13;2.20;99.90
11005;DHT22;5555;59.622;16.556;2024-01-11T07:25:39;2.10;99.90
11005;DHT22;5555;59.622;16.556;2024-01-11T07:28:06;2.10;99.90
11005;DHT22;5555;59.622;16.556;2024-01-11T07:30:31;2.10;99.90
11005;DHT22;5555;59.622;16.556;2024-01-11T07:32:57;2.10;99.90
11005;DHT22;5555;59.622;16.556;2024-01-11T07:35:22;2.10;99.90
11005;DHT22;5555;59.622;16.556;2024-01-11T07:37:48;2.10;99.90
11005;DHT22;5555;59.622;16.556;2024-01-11T07:40:15;2.10;99.90
11005;DHT22;5555;59.622;16.556;2024-01-11T07:42:42;2.20;99.90
11005;DHT22;5555;59.622;16.556;2024-01-11T07:45:09;2.20;99.90
11005;DHT22;5555;59.622;16.556;2024-01-11T07:47:38;2.20;99.90
11005;DHT22;5555;59.622;16.556;2024-01-11T07:50:08;2.10;99.90
11005;DHT22;5555;59.622;16.556;2024-01-11T07:52:35;2.10;99.90
11005;DHT22;5555;59.622;16.556;2024-01-11T07:55:02;2.00;99.90
11005;DHT22;5555;59.622;16.556;2024-01-11T07:57:36;2.00;99.90
11005;DHT22;5555;59.622;16.556;2024-01-11T08:00:03;2.00;99.90
11005;DHT22;5555;59.622;16.556;2024-01-11T08:02:29;2.00;99.90
11005;DHT22;5555;59.622;16.556;2024-01-11T08:04:55;2.00;99.90
11005;DHT22;5555;59.622;16.556;2024-01-11T08:07:21;2.00;99.90
11005;DHT22;5555;59.622;16.556;2024-01-11T08:09:47;2.10;99.90
11005;DHT22;5555;59.622;16.556;2024-01-11T08:12:16;2.00;99.90
11005;DHT22;5555;59.622;16.556;2024-01-11T08:14:42;2.10;99.90
11005;DHT22;5555;59.622;16.556;2024-01-11T08:17:08;2.10;99.90
11005;DHT22;5555;59.622;16.556;2024-01-11T08:19:34;2.10;99.90
11005;DHT22;5555;59.622;16.556;2024-01-11T08:22:00;2.10;99.90
11005;DHT22;5555;59.622;16.556;2024-01-11T08:24:25;2.10;99.90
11005;DHT22;5555;59.622;16.556;2024-01-11T08:26:52;2.10;99.90
11005;DHT22;5555;59.622;16.556;2024-01-11T08:29:17;2.10;99.90
11005;DHT22;5555;59.622;16.556;2024-01-11T08:31:45;2.10;99.90
11005;DHT22;5555;59.622;16.556;2024-01-11T08:34:11;2.00;99.90
11005;DHT22;5555;59.622;16.556;2024-01-11T08:36:37;2.10;99.90
11005;DHT22;5555;59.622;16.556;2024-01-11T08:39:06;2.10;99.90
11005;DHT22;5555;59.622;16.556;2024-01-11T08:41:33;2.00;99.90
11005;DHT22;5555;59.622;16.556;2024-01-11T08:44:00;2.00;99.90
11005;DHT22;5555;59.622;16.556;2024-01-11T08:46:26;2.00;99.90
11005;DHT22;5555;59.622;16.556;2024-01-11T08:48:52;2.10;99.90
11005;DHT22;5555;59.622;16.556;2024-01-11T08:51:18;2.00;99.90
11005;DHT22;5555;59.622;16.556;2024-01-11T08:53:44;2.10;99.90
11005;DHT22;5555;59.622;16.556;2024-01-11T08:56:10;2.10;99.90
11005;DHT22;5555;59.622;16.556;2024-01-11T08:58:35;2.20;99.90
11005;DHT22;5555;59.622;16.556;2024-01-11T09:01:02;2.20;99.90
11005;DHT22;5555;59.622;16.556;2024-01-11T09:03:28;2.20;99.90
11005;DHT22;5555;59.622;16.556;2024-01-11T09:05:54;2.20;99.90
11005;DHT22;5555;59.622;16.556;2024-01-11T09:08:22;2.10;99.90
11005;DHT22;5555;59.622;16.556;2024-01-11T09:10:48;2.20;99.90
11005;DHT22;5555;59.622;16.556;2024-01-11T09:13:14;2.20;99.90
11005;DHT22;5555;59.622;16.556;2024-01-11T09:15:41;2.20;99.90
11005;DHT22;5555;59.622;16.556;2024-01-11T09:18:07;2.20;99.90
11005;DHT22;5555;59.622;16.556;2024-01-11T09:20:33;2.20;99.90
11005;DHT22;5555;59.622;16.556;2024-01-11T09:22:59;2.20;99.90
11005;DHT22;5555;59.622;16.556;2024-01-11T09:25:27;2.20;99.90
11005;DHT22;5555;59.622;16.556;2024-01-11T09:27:53;2.20;99.90
11005;DHT22;5555;59.622;16.556;2024-01-11T09:30:18;2.30;99.90
11005;DHT22;5555;59.622;16.556;2024-01-11T09:32:44;2.30;99.90
11005;DHT22;5555;59.622;16.556;2024-01-11T09:35:10;2.40;99.90
11005;DHT22;5555;59.622;16.556;2024-01-11T09:37:36;2.40;99.90
11005;DHT22;5555;59.622;16.556;2024-01-11T09:40:01;2.40;99.90
11005;DHT22;5555;59.622;16.556;2024-01-11T09:42:27;2.40;99.90
11005;DHT22;5555;59.622;16.556;2024-01-11T09:44:54;2.50;99.90
11005;DHT22;5555;59.622;16.556;2024-01-11T09:47:21;2.50;99.90
11005;DHT22;5555;59.622;16.556;2024-01-11T09:49:49;2.50;99.90
11005;DHT22;5555;59.622;16.556;2024-01-11T09:52:20;2.50;99.90
11005;DHT22;5555;59.622;16.556;2024-01-11T09:54:45;2.60;99.90
11005;DHT22;5555;59.622;16.556;2024-01-11T09:57:11;2.50;99.90
11005;DHT22;5555;59.622;16.556;2024-01-11T09:59:37;2.60;99.90
11005;DHT22;5555;59.622;16.556;2024-01-11T10:02:03;2.50;99.90
11005;DHT22;5555;59.622;16.556;2024-01-11T10:04:29;2.50;99.90
11005;DHT22;5555;59.622;16.556;2024-01-11T10:06:55;2.60;99.90
11005;DHT22;5555;59.622;16.556;2024-01-11T10:09:22;2.60;99.90
11005;DHT22;5555;59.622;16.556;2024-01-11T10:11:48;2.40;99.90
11005;DHT22;5555;59.622;16.556;2024-01-11T10:14:14;2.50;99.90
11005;DHT22;5555;59.622;16.556;2024-01-11T10:16:42;2.40;99.90
11005;DHT22;5555;59.622;16.556;2024-01-11T10:19:09;2.40;99.90
11005;DHT22;5555;59.622;16.556;2024-01-11T10:21:38;2.40;99.90
11005;DHT22;5555;59.622;16.556;2024-01-11T10:24:07;2.40;99.90
11005;DHT22;5555;59.622;16.556;2024-01-11T10:26:32;2.50;99.90
11005;DHT22;5555;59.622;16.556;2024-01-11T10:29:01;2.40;99.90
11005;DHT22;5555;59.622;16.556;2024-01-11T10:31:30;2.40;99.90
11005;DHT22;5555;59.622;16.556;2024-01-11T10:33:57;2.40;99.90
11005;DHT22;5555;59.622;16.556;2024-01-11T10:36:23;2.40;99.90
11005;DHT22;5555;59.622;16.556;2024-01-11T10:38:49;2.50;99.90
11005;DHT22;5555;59.622;16.556;2024-01-11T10:41:18;2.50;99.90
11005;DHT22;5555;59.622;16.556;2024-01-11T10:43:46;2.50;99.90
11005;DHT22;5555;59.622;16.556;2024-01-11T10:46:15;2.50;99.90
11005;DHT22;5555;59.622;16.556;2024-01-11T10:48:44;2.50;99.90
11005;DHT22;5555;59.622;16.556;2024-01-11T10:51:16;2.60;99.90
11005;DHT22;5555;59.622;16.556;2024-01-11T10:53:45;2.60;99.90
11005;DHT22;5555;59.622;16.556;2024-01-11T10:56:15;2.70;99.90
11005;DHT22;5555;59.622;16.556;2024-01-11T10:58:44;2.60;99.90
11005;DHT22;5555;59.622;16.556;2024-01-11T11:01:11;2.60;99.90
11005;DHT22;5555;59.622;16.556;2024-01-11T11:03:38;2.60;99.90
11005;DHT22;5555;59.622;16.556;2024-01-11T11:06:06;2.60;99.90
11005;DHT22;5555;59.622;16.556;2024-01-11T11:08:33;2.60;99.90
11005;DHT22;5555;59.622;16.556;2024-01-11T11:11:03;2.70;99.90
11005;DHT22;5555;59.622;16.556;2024-01-11T11:13:32;2.70;99.90
11005;DHT22;5555;59.622;16.556;2024-01-11T11:15:57;2.70;99.90
11005;DHT22;5555;59.622;16.556;2024-01-11T11:18:24;2.70;99.90
11005;DHT22;5555;59.622;16.556;2024-01-11T11:20:50;2.70;99.90
11005;DHT22;5555;59.622;16.556;2024-01-11T11:23:18;2.70;99.90
11005;DHT22;5555;59.622;16.556;2024-01-11T11:25:46;2.80;99.90
11005;DHT22;5555;59.622;16.556;2024-01-11T11:28:12;2.80;99.90
11005;DHT22;5555;59.622;16.556;2024-01-11T11:30:40;2.80;99.90
11005;DHT22;5555;59.622;16.556;2024-01-11T11:33:10;2.70;99.90
11005;DHT22;5555;59.622;16.556;2024-01-11T11:35:37;2.70;99.90
11005;DHT22;5555;59.622;16.556;2024-01-11T11:38:03;2.80;99.90
11005;DHT22;5555;59.622;16.556;2024-01-11T11:40:37;2.80;99.90
11005;DHT22;5555;59.622;16.556;2024-01-11T11:43:05;2.80;99.90
11005;DHT22;5555;59.622;16.556;2024-01-11T11:45:32;2.80;99.90
11005;DHT22;5555;59.622;16.556;2024-01-11T11:47:57;2.90;99.90
11005;DHT22;5555;59.622;16.556;2024-01-11T11:50:24;2.90;99.90
11005;DHT22;5555;59.622;16.556;2024-01-11T11:52:56;2.80;99.90
11005;DHT22;5555;59.622;16.556;2024-01-11T11:55:25;2.80;99.90
11005;DHT22;5555;59.622;16.556;2024-01-11T11:57:52;2.80;99.90
11005;DHT22;5555;59.622;16.556;2024-01-11T12:00:19;2.80;99.90
11005;DHT22;5555;59.622;16.556;2024-01-11T12:02:47;2.80;99.90
11005;DHT22;5555;59.622;16.556;2024-01-11T12:05:13;2.70;99.90
11005;DHT22;5555;59.622;16.556;2024-01-11T12:07:39;2.80;99.90
11005;DHT22;5555;59.622;16.556;2024-01-11T12:10:05;2.90;99.90
11005;DHT22;5555;59.622;16.556;2024-01-11T12:12:33;2.90;99.90
11005;DHT22;5555;59.622;16.556;2024-01-11T12:14:59;2.90;99.90
11005;DHT22;5555;59.622;16.556;2024-01-11T12:17:25;2.90;99.90
11005;DHT22;5555;59.622;16.556;2024-01-11T12:19:54;2.90;99.90
11005;DHT22;5555;59.622;16.556;2024-01-11T12:22:19;2.80;99.90
11005;DHT22;5555;59.622;16.556;2024-01-11T12:24:46;2.90;99.90
11005;DHT22;5555;59.622;16.556;2024-01-11T12:27:12;2.80;99.90
11005;DHT22;5555;59.622;16.556;2024-01-11T12:29:39;2.80;99.90
11005;DHT22;5555;59.622;16.556;2024-01-11T12:32:05;2.80;99.90
11005;DHT22;5555;59.622;16.556;2024-01-11T12:34:31;2.80;99.90
11005;DHT22;5555;59.622;16.556;2024-01-11T12:36:58;2.70;99.90
11005;DHT22;5555;59.622;16.556;2024-01-11T12:39:26;2.70;99.90
11005;DHT22;5555;59.622;16.556;2024-01-11T12:41:54;2.70;99.90
11005;DHT22;5555;59.622;16.556;2024-01-11T12:44:20;2.80;99.90
11005;DHT22;5555;59.622;16.556;2024-01-11T12:46:48;2.70;99.90
11005;DHT22;5555;59.622;16.556;2024-01-11T12:49:15;2.70;99.90
11005;DHT22;5555;59.622;16.556;2024-01-11T12:51:41;2.80;99.90
11005;DHT22;5555;59.622;16.556;2024-01-11T12:54:11;2.80;99.90
11005;DHT22;5555;59.622;16.556;2024-01-11T12:56:42;2.80;99.90
11005;DHT22;5555;59.622;16.556;2024-01-11T12:59:09;2.70;99.90
11005;DHT22;5555;59.622;16.556;2024-01-11T13:01:36;2.70;99.90
11005;DHT22;5555;59.622;16.556;2024-01-11T13:04:01;2.80;99.90
11005;DHT22;5555;59.622;16.556;2024-01-11T13:06:29;2.70;99.90
11005;DHT22;5555;59.622;16.556;2024-01-11T13:08:55;2.70;99.90
11005;DHT22;5555;59.622;16.556;2024-01-11T13:11:21;2.60;99.90
11005;DHT22;5555;59.622;16.556;2024-01-11T13:13:46;2.60;99.90
11005;DHT22;5555;59.622;16.556;2024-01-11T13:16:12;2.60;99.90
11005;DHT22;5555;59.622;16.556;2024-01-11T13:18:40;2.60;99.90
11005;DHT22;5555;59.622;16.556;2024-01-11T13:21:05;2.50;99.90
11005;DHT22;5555;59.622;16.556;2024-01-11T13:23:35;2.50;99.90
11005;DHT22;5555;59.622;16.556;2024-01-11T13:26:03;2.40;99.90
11005;DHT22;5555;59.622;16.556;2024-01-11T13:28:30;2.40;99.90
11005;DHT22;5555;59.622;16.556;2024-01-11T13:30:56;2.30;99.90
11005;DHT22;5555;59.622;16.556;2024-01-11T13:33:22;2.20;99.90
11005;DHT22;5555;59.622;16.556;2024-01-11T13:35:49;2.10;99.90
11005;DHT22;5555;59.622;16.556;2024-01-11T13:38:15;2.00;99.90
11005;DHT22;5555;59.622;16.556;2024-01-11T13:40:41;1.90;99.90
11005;DHT22;5555;59.622;16.556;2024-01-11T13:43:08;1.80;99.90
11005;DHT22;5555;59.622;16.556;2024-01-11T13:45:35;1.80;99.90
11005;DHT22;5555;59.622;16.556;2024-01-11T13:48:04;1.70;99.90
11005;DHT22;5555;59.622;16.556;2024-01-11T13:50:30;1.70;99.90
11005;DHT22;5555;59.622;16.556;2024-01-11T13:52:56;1.60;99.90
11005;DHT22;5555;59.622;16.556;2024-01-11T13:55:22;1.60;99.90
11005;DHT22;5555;59.622;16.556;2024-01-11T13:57:51;1.60;99.90
11005;DHT22;5555;59.622;16.556;2024-01-11T14:00:18;1.60;99.90
11005;DHT22;5555;59.622;16.556;2024-01-11T14:02:44;1.60;99.90
11005;DHT22;5555;59.622;16.556;2024-01-11T14:05:11;1.60;99.90
11005;DHT22;5555;59.622;16.556;2024-01-11T14:07:40;1.50;99.90
11005;DHT22;5555;59.622;16.556;2024-01-11T14:10:07;1.50;99.90
11005;DHT22;5555;59.622;16.556;2024-01-11T14:12:34;1.40;99.90
11005;DHT22;5555;59.622;16.556;2024-01-11T14:15:02;1.40;99.90
11005;DHT22;5555;59.622;16.556;2024-01-11T14:17:29;1.40;99.90
11005;DHT22;5555;59.622;16.556;2024-01-11T14:19:55;1.40;99.90
11005;DHT22;5555;59.622;16.556;2024-01-11T14:22:20;1.30;99.90
11005;DHT22;5555;59.622;16.556;2024-01-11T14:24:46;1.30;99.90
11005;DHT22;5555;59.622;16.556;2024-01-11T14:27:11;1.30;99.90
11005;DHT22;5555;59.622;16.556;2024-01-11T14:29:39;1.20;99.90
11005;DHT22;5555;59.622;16.556;2024-01-11T14:32:05;1.20;99.90
11005;DHT22;5555;59.622;16.556;2024-01-11T14:34:31;1.20;99.90
11005;DHT22;5555;59.622;16.556;2024-01-11T14:36:57;1.10;99.90
11005;DHT22;5555;59.622;16.556;2024-01-11T14:39:22;1.00;99.90
11005;DHT22;5555;59.622;16.556;2024-01-11T14:41:49;1.00;99.90
11005;DHT22;5555;59.622;16.556;2024-01-11T14:44:14;0.90;99.90
11005;DHT22;5555;59.622;16.556;2024-01-11T14:46:40;0.80;99.90
11005;DHT22;5555;59.622;16.556;2024-01-11T14:49:07;0.70;99.90
11005;DHT22;5555;59.622;16.556;2024-01-11T14:51:33;0.50;99.90
11005;DHT22;5555;59.622;16.556;2024-01-11T14:53:59;0.50;99.90
11005;DHT22;5555;59.622;16.556;2024-01-11T14:56:25;0.40;99.90
11005;DHT22;5555;59.622;16.556;2024-01-11T14:58:51;0.40;99.90
11005;DHT22;5555;59.622;16.556;2024-01-11T15:01:16;0.40;99.90
11005;DHT22;5555;59.622;16.556;2024-01-11T15:03:43;0.30;99.90
11005;DHT22;5555;59.622;16.556;2024-01-11T15:06:08;0.30;99.90
11005;DHT22;5555;59.622;16.556;2024-01-11T15:08:35;0.30;99.90
11005;DHT22;5555;59.622;16.556;2024-01-11T15:11:00;0.40;99.90
11005;DHT22;5555;59.622;16.556;2024-01-11T15:13:26;0.50;99.90
11005;DHT22;5555;59.622;16.556;2024-01-11T15:15:54;0.50;99.90
11005;DHT22;5555;59.622;16.556;2024-01-11T15:18:19;0.50;99.90
11005;DHT22;5555;59.622;16.556;2024-01-11T15:20:45;0.50;99.90
11005;DHT22;5555;59.622;16.556;2024-01-11T15:23:11;0.50;99.90
11005;DHT22;5555;59.622;16.556;2024-01-11T15:25:36;0.50;99.90
11005;DHT22;5555;59.622;16.556;2024-01-11T15:28:02;0.50;99.90
11005;DHT22;5555;59.622;16.556;2024-01-11T15:30:28;0.50;99.90
11005;DHT22;5555;59.622;16.556;2024-01-11T15:32:53;0.40;99.90
11005;DHT22;5555;59.622;16.556;2024-01-11T15:35:19;0.40;99.90
11005;DHT22;5555;59.622;16.556;2024-01-11T15:37:44;0.40;99.90
11005;DHT22;5555;59.622;16.556;2024-01-11T15:40:10;0.30;99.90